createdAt,value
2022-11-12T00:00:25.440Z,99.99
2022-11-12T00:05:25.410Z,99.99
2022-11-12T00:10:25.400Z,99.99
2022-11-12T00:15:25.263Z,99.99
2022-11-12T00:20:25.195Z,99.99
2022-11-12T00:25:25.132Z,99.99
2022-11-12T00:30:25.037Z,99.99
2022-11-12T00:35:24.997Z,99.99
2022-11-12T00:40:24.926Z,99.99
2022-11-12T00:45:24.846Z,99.99
2022-11-12T00:50:24.820Z,99.99
2022-11-12T00:55:24.746Z,99.99
2022-11-12T01:00:24.654Z,99.99
2022-11-12T01:05:44.017Z,99.99
2022-11-12T01:10:36.063Z,99.99
2022-11-12T01:15:36.000Z,99.99
2022-11-12T01:20:35.938Z,99.99
2022-11-12T01:25:35.864Z,99.99
2022-11-12T01:30:35.822Z,99.99
2022-11-12T01:35:35.736Z,99.99
2022-11-12T01:40:35.663Z,99.99
2022-11-12T01:45:35.604Z,99.99
2022-11-12T01:50:35.871Z,99.99
2022-11-12T01:55:35.455Z,99.99
2022-11-12T02:00:35.415Z,99.99
2022-11-12T02:05:35.349Z,99.99
2022-11-12T02:10:35.284Z,99.99
2022-11-12T02:15:35.211Z,99.99
2022-11-12T02:20:35.176Z,99.99
2022-11-12T02:25:35.067Z,99.99
2022-11-12T02:30:35.032Z,99.99
2022-11-12T02:35:34.970Z,99.99
2022-11-12T02:40:34.884Z,99.99
2022-11-12T02:45:34.826Z,99.99
2022-11-12T02:50:34.800Z,99.99
2022-11-12T02:55:34.667Z,99.99
2022-11-12T03:00:34.627Z,99.99
2022-11-12T03:05:34.568Z,99.99
2022-11-12T03:10:34.476Z,99.99
2022-11-12T03:15:34.430Z,99.99
2022-11-12T03:20:34.368Z,99.99
2022-11-12T03:25:34.277Z,99.99
2022-11-12T03:30:34.233Z,99.99
2022-11-12T03:35:34.167Z,99.99
2022-11-12T03:40:34.081Z,99.99
2022-11-12T03:45:34.033Z,99.99
2022-11-12T03:50:33.971Z,99.99
2022-11-12T03:55:33.890Z,99.99
2022-11-12T04:00:33.842Z,99.99
2022-11-12T04:05:33.803Z,99.99
2022-11-12T04:10:33.681Z,99.99
2022-11-12T04:15:33.665Z,99.99
2022-11-12T04:20:33.577Z,99.99
2022-11-12T04:25:33.489Z,99.99
2022-11-12T04:30:33.498Z,99.99
2022-11-12T04:35:33.366Z,99.99
2022-11-12T04:40:33.283Z,99.99
2022-11-12T04:45:33.263Z,99.99
2022-11-12T04:50:33.173Z,99.99
2022-11-12T04:55:33.153Z,99.99
2022-11-12T05:00:33.021Z,99.99
2022-11-12T05:05:34.182Z,99.99
2022-11-12T05:10:32.904Z,99.99
2022-11-12T05:15:47.689Z,99.99
2022-11-12T05:20:40.077Z,99.99
2022-11-12T05:25:40.006Z,99.99
2022-11-12T05:30:39.945Z,99.99
2022-11-12T05:35:39.877Z,99.99
2022-11-12T05:40:39.820Z,99.99
2022-11-12T05:45:39.738Z,99.99
2022-11-12T05:51:06.266Z,99.99
2022-11-12T05:55:40.596Z,99.99
2022-11-12T06:00:39.528Z,99.99
2022-11-12T06:05:39.477Z,99.99
2022-11-12T06:10:39.409Z,99.99
2022-11-12T06:15:39.669Z,99.99
2022-11-12T06:20:39.338Z,99.99
2022-11-12T06:25:39.209Z,99.99
2022-11-12T06:30:39.140Z,99.99
2022-11-12T06:35:42.780Z,99.99
2022-11-12T06:40:39.001Z,99.99
2022-11-12T06:45:38.930Z,99.99
2022-11-12T06:50:38.872Z,99.99
2022-11-12T06:55:38.815Z,99.99
2022-11-12T07:00:38.761Z,99.99
2022-11-12T07:05:38.677Z,99.99
2022-11-12T07:10:38.617Z,99.99
2022-11-12T07:15:38.534Z,99.99
2022-11-12T07:20:38.502Z,99.99
2022-11-12T07:25:38.415Z,99.99
2022-11-12T07:30:38.346Z,99.99
2022-11-12T07:35:38.285Z,99.99
2022-11-12T07:40:38.206Z,99.99
2022-11-12T07:45:38.158Z,99.99
2022-11-12T07:50:38.087Z,99.99
2022-11-12T07:55:38.018Z,99.99
2022-11-12T08:00:37.990Z,99.99
2022-11-12T08:05:37.891Z,99.99
2022-11-12T08:10:37.827Z,99.99
2022-11-12T08:15:37.737Z,99.99
2022-11-12T08:20:37.688Z,99.99
2022-11-12T08:25:37.630Z,99.99
2022-11-12T08:30:37.550Z,99.99
2022-11-12T08:35:37.495Z,99.95
2022-11-12T08:40:37.424Z,99.70
2022-11-12T08:45:37.418Z,99.96
2022-11-12T08:50:37.279Z,99.19
2022-11-12T08:55:37.219Z,99.09
2022-11-12T09:00:37.149Z,98.74
2022-11-12T09:05:37.092Z,97.76
2022-11-12T09:10:37.031Z,97.19
2022-11-12T09:15:38.333Z,97.66
2022-11-12T09:20:36.903Z,97.61
2022-11-12T09:25:36.855Z,95.86
2022-11-12T09:30:36.765Z,95.24
2022-11-12T09:35:36.706Z,95.34
2022-11-12T09:40:36.637Z,94.89
2022-11-12T09:45:36.588Z,95.28
2022-11-12T09:50:36.500Z,96.06
2022-11-12T09:55:36.456Z,95.30
2022-11-12T10:00:38.203Z,94.47
2022-11-12T10:05:36.330Z,95.46
2022-11-12T10:10:36.255Z,94.84
2022-11-12T10:15:36.174Z,94.53
2022-11-12T10:20:38.801Z,95.21
2022-11-12T10:25:36.067Z,93.93
2022-11-12T10:30:35.982Z,92.94
2022-11-12T10:35:35.893Z,93.98
2022-11-12T10:40:35.854Z,93.21
2022-11-12T10:45:35.774Z,93.48
2022-11-12T10:50:35.717Z,93.02
2022-11-12T10:55:35.642Z,90.51
2022-11-12T11:00:35.589Z,89.50
2022-11-12T11:05:35.506Z,88.33
2022-11-12T11:10:35.455Z,83.74
2022-11-12T11:15:35.385Z,80.69
2022-11-12T11:20:35.305Z,82.41
2022-11-12T11:25:35.282Z,81.31
2022-11-12T11:30:35.251Z,79.25
2022-11-12T11:35:35.114Z,76.35
2022-11-12T11:40:35.037Z,73.23
2022-11-12T11:45:34.982Z,70.35
2022-11-12T11:50:34.927Z,71.16
2022-11-12T11:55:34.854Z,72.34
2022-11-12T12:00:34.791Z,71.60
2022-11-12T12:05:34.712Z,72.72
2022-11-12T12:10:53.677Z,75.44
2022-11-12T12:15:35.591Z,76.84
2022-11-12T12:20:34.541Z,74.52
2022-11-12T12:25:34.460Z,74.52
2022-11-12T12:30:34.389Z,75.88
2022-11-12T12:35:34.323Z,77.04
2022-11-12T12:40:34.260Z,79.43
2022-11-12T12:45:36.118Z,78.09
2022-11-12T12:50:34.109Z,79.39
2022-11-12T12:55:34.060Z,80.01
2022-11-12T13:00:34.098Z,79.57
2022-11-12T13:05:33.928Z,79.97
2022-11-12T13:10:33.869Z,79.16
2022-11-12T13:15:33.847Z,79.22
2022-11-12T13:20:33.730Z,79.36
2022-11-12T13:25:33.670Z,80.58
2022-11-12T13:30:33.612Z,80.48
2022-11-12T13:35:33.531Z,80.79
2022-11-12T13:40:33.460Z,81.54
2022-11-12T13:45:33.402Z,81.48
2022-11-12T13:50:37.767Z,81.99
2022-11-12T13:55:34.265Z,83.25
2022-11-12T14:00:33.323Z,83.01
2022-11-12T14:05:33.137Z,83.05
2022-11-12T14:10:33.072Z,83.15
2022-11-12T14:15:32.998Z,83.66
2022-11-12T14:20:32.906Z,84.42
2022-11-12T14:25:32.863Z,84.72
2022-11-12T14:30:32.800Z,85.03
2022-11-12T14:35:32.727Z,85.75
2022-11-12T14:40:32.666Z,85.79
2022-11-12T14:45:35.281Z,86.20
2022-11-12T14:50:37.360Z,85.93
2022-11-12T14:55:34.795Z,86.44
2022-11-12T15:00:32.451Z,86.65
2022-11-12T15:05:32.326Z,87.47
2022-11-12T15:10:32.250Z,87.30
2022-11-12T15:15:32.203Z,87.92
2022-11-12T15:20:32.133Z,89.50
2022-11-12T15:25:32.092Z,90.32
2022-11-12T15:30:32.006Z,90.97
2022-11-12T15:35:31.940Z,91.53
2022-11-12T15:40:31.879Z,92.08
2022-11-12T15:45:31.820Z,92.85
2022-11-12T15:50:31.748Z,93.57
2022-11-12T15:55:31.764Z,94.54
2022-11-12T16:00:31.635Z,95.05
2022-11-12T16:05:31.556Z,95.50
2022-11-12T16:10:31.476Z,96.02
2022-11-12T16:15:31.401Z,96.17
2022-11-12T16:20:31.347Z,96.68
2022-11-12T16:25:31.307Z,96.89
2022-11-12T16:30:31.202Z,97.34
2022-11-12T16:35:31.121Z,97.86
2022-11-12T16:40:31.191Z,97.69
2022-11-12T16:45:31.017Z,98.11
2022-11-12T16:50:30.957Z,98.11
2022-11-12T16:55:30.881Z,98.25
2022-11-12T17:00:30.818Z,98.67
2022-11-12T17:05:30.738Z,98.67
2022-11-12T17:10:30.688Z,98.05
2022-11-12T17:15:30.629Z,98.30
2022-11-12T17:20:30.564Z,98.71
2022-11-12T17:25:30.493Z,98.41
2022-11-12T17:30:30.448Z,98.20
2022-11-12T17:35:30.446Z,98.71
2022-11-12T17:40:30.295Z,99.07
2022-11-12T17:45:30.242Z,99.48
2022-11-12T17:50:30.155Z,99.58
2022-11-12T17:55:30.083Z,99.38
2022-11-12T18:00:30.034Z,99.58
2022-11-12T18:05:29.933Z,99.58
2022-11-12T18:10:29.894Z,99.38
2022-11-12T18:15:29.854Z,99.58
2022-11-12T18:20:29.768Z,99.27
2022-11-12T18:25:29.695Z,99.17
2022-11-12T18:30:29.646Z,99.38
2022-11-12T18:35:30.118Z,99.52
2022-11-12T18:40:29.497Z,99.73
2022-11-12T18:45:29.438Z,99.99
2022-11-12T18:50:29.391Z,99.99
2022-11-12T18:55:29.318Z,99.99
2022-11-12T19:00:29.274Z,99.99
2022-11-12T19:05:29.172Z,99.78
2022-11-12T19:10:29.097Z,99.99
2022-11-12T19:15:29.057Z,99.99
2022-11-12T19:20:28.991Z,99.57
2022-11-12T19:25:28.891Z,99.68
2022-11-12T19:30:28.899Z,99.62
2022-11-12T19:35:28.789Z,99.82
2022-11-12T19:40:28.740Z,99.99
2022-11-12T19:45:28.651Z,99.99
2022-11-12T19:50:28.594Z,99.99
2022-11-12T19:55:28.503Z,99.99
2022-11-12T20:00:28.454Z,99.87
2022-11-12T20:05:28.384Z,99.66
2022-11-12T20:10:28.331Z,99.77
2022-11-12T20:15:28.254Z,99.99
2022-11-12T20:20:28.175Z,99.99
2022-11-12T20:25:28.388Z,99.99
2022-11-12T20:30:28.058Z,99.99
2022-11-12T20:35:27.968Z,99.99
2022-11-12T20:40:27.948Z,99.99
2022-11-12T20:45:27.899Z,99.99
2022-11-12T20:50:27.791Z,99.99
2022-11-12T20:55:27.736Z,99.99
2022-11-12T21:00:27.665Z,99.99
2022-11-12T21:05:27.580Z,99.99
2022-11-12T21:10:27.521Z,99.99
2022-11-12T21:15:27.462Z,99.99
2022-11-12T21:20:27.406Z,99.99
2022-11-12T21:25:27.313Z,99.99
2022-11-12T21:30:27.276Z,99.99
2022-11-12T21:35:27.182Z,99.99
2022-11-12T21:40:27.146Z,99.99
2022-11-12T21:45:27.047Z,99.99
2022-11-12T21:50:26.992Z,99.99
2022-11-12T21:55:26.931Z,99.99
2022-11-12T22:00:41.692Z,99.99
2022-11-12T22:05:27.792Z,99.99
2022-11-12T22:10:26.748Z,99.99
2022-11-12T22:15:26.665Z,99.99
2022-11-12T22:20:26.617Z,99.99
2022-11-12T22:25:26.549Z,99.99
2022-11-12T22:30:26.493Z,99.99
2022-11-12T22:35:26.400Z,99.99
2022-11-12T22:40:26.367Z,99.99
2022-11-12T22:45:26.272Z,99.99
2022-11-12T22:50:26.214Z,99.99
2022-11-12T22:55:26.142Z,99.99
2022-11-12T23:00:26.066Z,99.99
2022-11-12T23:05:25.998Z,99.99
2022-11-12T23:10:25.969Z,99.99
2022-11-12T23:15:25.867Z,99.99
2022-11-12T23:20:25.800Z,99.99
2022-11-12T23:25:25.732Z,99.99
2022-11-12T23:30:25.679Z,99.99
2022-11-12T23:35:25.600Z,99.99
2022-11-12T23:40:30.763Z,99.99
2022-11-12T23:45:26.477Z,99.99
2022-11-12T23:50:25.392Z,99.99
2022-11-12T23:55:27.624Z,99.99
